createdAt,value
2018-09-17T00:00:07.672Z,88.59
2018-09-17T00:01:17.633Z,88.68
2018-09-17T00:02:27.733Z,88.78
2018-09-17T00:03:37.820Z,88.68
2018-09-17T00:04:47.907Z,88.68
2018-09-17T00:05:57.982Z,88.68
2018-09-17T00:07:08.073Z,88.87
2018-09-17T00:08:18.147Z,88.73
2018-09-17T00:09:27.956Z,88.59
2018-09-17T00:10:38.036Z,88.39
2018-09-17T00:11:48.148Z,88.68
2018-09-17T00:12:58.235Z,88.78
2018-09-17T00:14:08.396Z,88.68
2018-09-17T00:15:18.464Z,88.73
2018-09-17T00:16:28.529Z,88.73
2018-09-17T00:17:38.633Z,88.64
2018-09-17T00:18:48.714Z,88.64
2018-09-17T00:19:58.781Z,88.54
2018-09-17T00:21:08.848Z,88.73
2018-09-17T00:22:18.657Z,88.54
2018-09-17T00:23:28.789Z,88.54
2018-09-17T00:24:38.883Z,88.64
2018-09-17T00:25:48.943Z,88.83
2018-09-17T00:26:59.036Z,88.83
2018-09-17T00:28:09.116Z,88.83
2018-09-17T00:29:19.233Z,88.16
2018-09-17T00:30:29.333Z,88.73
2018-09-17T00:31:39.447Z,88.35
2018-09-17T00:32:49.261Z,88.73
2018-09-17T00:33:59.324Z,88.73
2018-09-17T00:35:09.649Z,88.64
2018-09-17T00:36:19.730Z,88.73
2018-09-17T00:37:29.817Z,88.64
2018-09-17T00:38:39.635Z,88.54
2018-09-17T00:39:49.449Z,88.64
2018-09-17T00:40:59.512Z,88.83
2018-09-17T00:42:09.074Z,88.64
2018-09-17T00:43:19.139Z,88.54
2018-09-17T00:44:28.956Z,88.64
2018-09-17T00:45:39.083Z,88.54
2018-09-17T00:46:49.162Z,88.45
2018-09-17T00:47:59.010Z,88.73
2018-09-17T00:49:10.278Z,88.45
2018-09-17T00:50:20.349Z,88.35
2018-09-17T00:51:30.197Z,88.54
2018-09-17T00:52:40.328Z,88.54
2018-09-17T00:53:50.442Z,88.83
2018-09-17T00:55:00.509Z,88.64
2018-09-17T00:56:10.578Z,88.69
2018-09-17T00:57:20.437Z,88.49
2018-09-17T00:58:30.510Z,88.49
2018-09-17T00:59:40.703Z,88.49
2018-09-17T01:00:50.796Z,88.59
2018-09-17T01:02:00.351Z,88.59
2018-09-17T01:03:10.444Z,88.59
2018-09-17T01:04:20.606Z,88.49
2018-09-17T01:05:30.554Z,88.69
2018-09-17T01:06:40.630Z,88.59
2018-09-17T01:07:50.748Z,88.59
2018-09-17T01:09:03.282Z,88.49
2018-09-17T01:10:13.400Z,88.59
2018-09-17T01:11:23.312Z,88.59
2018-09-17T01:12:33.384Z,88.49
2018-09-17T01:13:43.449Z,88.49
2018-09-17T01:14:53.517Z,88.69
2018-09-17T01:16:04.951Z,88.69
2018-09-17T01:17:15.225Z,88.69
2018-09-17T01:18:25.307Z,88.31
2018-09-17T01:19:35.396Z,88.69
2018-09-17T01:20:45.470Z,88.79
2018-09-17T01:21:55.598Z,88.49
2018-09-17T01:23:05.656Z,88.45
2018-09-17T01:24:15.726Z,87.73
2018-09-17T01:25:26.132Z,88.4
2018-09-17T01:26:36.259Z,88.21
2018-09-17T01:27:46.341Z,88.21
2018-09-17T01:28:56.396Z,87.82
2018-09-17T01:30:06.477Z,88.02
2018-09-17T01:31:16.299Z,88.11
2018-09-17T01:32:26.387Z,88.21
2018-09-17T01:33:36.509Z,88.21
2018-09-17T01:34:46.590Z,88.31
2018-09-17T01:35:56.697Z,88.11
2018-09-17T01:37:06.772Z,88.11
2018-09-17T01:38:16.830Z,88.21
2018-09-17T01:39:26.676Z,88.02
2018-09-17T01:40:36.749Z,88.02
2018-09-17T01:41:46.841Z,88.02
2018-09-17T01:42:56.902Z,88.11
2018-09-17T01:44:07.999Z,88.11
2018-09-17T01:45:19.473Z,87.92
2018-09-17T01:46:29.549Z,88.11
2018-09-17T01:47:39.625Z,88.31
2018-09-17T01:48:49.503Z,88.79
2018-09-17T01:49:59.589Z,88.65
2018-09-17T01:51:11.073Z,88.45
2018-09-17T01:52:21.173Z,88.65
2018-09-17T01:53:31.241Z,88.35
2018-09-17T01:54:41.048Z,88.21
2018-09-17T01:55:50.876Z,88.31
2018-09-17T01:57:00.470Z,87.82
2018-09-17T01:58:10.292Z,88.21
2018-09-17T01:59:20.099Z,88.4
2018-09-17T02:00:30.218Z,88.11
2018-09-17T02:01:40.296Z,88.21
2018-09-17T02:02:50.535Z,88.21
2018-09-17T02:04:00.609Z,88.11
2018-09-17T02:05:10.410Z,88.02
2018-09-17T02:06:20.536Z,88.21
2018-09-17T02:07:30.351Z,88.02
2018-09-17T02:08:40.582Z,88.31
2018-09-17T02:09:50.537Z,88.79
2018-09-17T02:11:01.224Z,88.59
2018-09-17T02:12:11.030Z,88.59
2018-09-17T02:13:21.100Z,88.49
2018-09-17T02:14:31.283Z,88.4
2018-09-17T02:15:41.373Z,88.59
2018-09-17T02:16:51.498Z,88.4
2018-09-17T02:18:02.261Z,88.21
2018-09-17T02:19:12.363Z,88.49
2018-09-17T02:20:22.229Z,88.49
2018-09-17T02:21:32.291Z,88.69
2018-09-17T02:22:42.112Z,88.4
2018-09-17T02:23:51.929Z,88.69
2018-09-17T02:25:02.007Z,88.45
2018-09-17T02:26:12.225Z,88.45
2018-09-17T02:27:22.284Z,88.35
2018-09-17T02:28:32.361Z,88.55
2018-09-17T02:29:42.433Z,88.65
2018-09-17T02:30:52.487Z,88.65
2018-09-17T02:32:02.351Z,88.55
2018-09-17T02:33:12.164Z,88.17
2018-09-17T02:34:22.238Z,88.55
2018-09-17T02:35:32.325Z,88.35
2018-09-17T02:36:42.404Z,88.35
2018-09-17T02:37:52.554Z,88.49
2018-09-17T02:39:02.846Z,88.55
2018-09-17T02:40:12.652Z,88.45
2018-09-17T02:41:22.743Z,88.45
2018-09-17T02:42:32.888Z,88.55
2018-09-17T02:43:42.975Z,88.74
2018-09-17T02:44:52.792Z,88.45
2018-09-17T02:46:04.501Z,88.35
2018-09-17T02:47:14.314Z,88.59
2018-09-17T02:48:24.144Z,88.74
2018-09-17T02:49:34.272Z,88.45
2018-09-17T02:50:44.336Z,88.69
2018-09-17T02:51:54.411Z,88.35
2018-09-17T02:53:04.493Z,88.45
2018-09-17T02:54:14.620Z,88.55
2018-09-17T02:55:24.699Z,88.35
2018-09-17T02:56:34.794Z,88.35
2018-09-17T02:57:44.600Z,88.45
2018-09-17T02:58:54.691Z,88.55
2018-09-17T03:00:07.217Z,88.65
2018-09-17T03:01:17.355Z,88.65
2018-09-17T03:02:27.446Z,88.35
2018-09-17T03:34:56.645Z,82.97
2018-09-17T03:36:06.720Z,83.64
2018-09-17T03:37:16.812Z,83.69
2018-09-17T03:38:26.878Z,84.65
2018-09-17T03:39:36.970Z,85.41
2018-09-17T03:40:47.078Z,86.41
2018-09-17T03:41:57.143Z,86.76
2018-09-17T03:43:07.217Z,86.7
2018-09-17T03:44:17.287Z,87.18
2018-09-17T03:45:27.098Z,87.27
2018-09-17T03:46:37.236Z,87.56
2018-09-17T03:47:48.053Z,87.85
2018-09-17T03:48:58.221Z,87.99
2018-09-17T03:50:08.864Z,87.8
2018-09-17T03:51:18.695Z,88.28
2018-09-17T03:52:28.770Z,88.28
2018-09-17T03:53:38.843Z,88.37
2018-09-17T03:54:48.930Z,88.28
2018-09-17T03:55:58.998Z,88.23
2018-09-17T03:57:10.729Z,88.23
2018-09-17T03:58:20.791Z,88.32
2018-09-17T03:59:30.606Z,88.51
2018-09-17T04:00:40.703Z,88.32
2018-09-17T04:01:50.873Z,88.32
2018-09-17T04:03:00.676Z,88.32
2018-09-17T04:04:10.783Z,88.56
2018-09-17T04:05:20.871Z,88.65
2018-09-17T04:06:30.935Z,88.37
2018-09-17T04:07:41.001Z,88.37
2018-09-17T04:08:51.062Z,88.46
2018-09-17T04:10:01.326Z,88.37
2018-09-17T04:11:11.413Z,88.56
2018-09-17T04:12:21.497Z,88.56
2018-09-17T04:13:31.570Z,88.37
2018-09-17T04:14:41.389Z,88.27
2018-09-17T04:15:51.534Z,88.37
2018-09-17T04:17:01.350Z,88.41
2018-09-17T04:18:11.335Z,88.41
2018-09-17T04:19:21.399Z,88.6
2018-09-17T04:20:31.462Z,88.6
2018-09-17T04:21:41.590Z,88.51
2018-09-17T04:22:51.668Z,88.51
2018-09-17T04:24:01.754Z,88.17
2018-09-17T04:25:11.839Z,88.12
2018-09-17T04:26:21.665Z,88.41
2018-09-17T04:27:31.773Z,88.6
2018-09-17T04:28:41.855Z,88.41
2018-09-17T04:29:51.926Z,88.51
2018-09-17T04:31:03.027Z,88.51
2018-09-17T04:32:13.163Z,88.41
2018-09-17T04:33:23.227Z,88.6
2018-09-17T04:34:32.513Z,88.31
2018-09-17T04:35:42.620Z,88.12
2018-09-17T04:36:52.692Z,87.74
2018-09-17T04:38:02.561Z,88.02
2018-09-17T04:39:12.738Z,88.02
2018-09-17T04:40:22.828Z,88.12
2018-09-17T04:41:32.642Z,88.02
2018-09-17T04:42:42.766Z,88.22
2018-09-17T04:43:52.827Z,88.02
2018-09-17T04:45:02.896Z,88.12
2018-09-17T04:46:12.975Z,88.22
2018-09-17T04:47:22.788Z,88.02
2018-09-17T04:48:32.851Z,88.12
2018-09-17T04:49:42.661Z,88.12
2018-09-17T04:50:52.738Z,87.88
2018-09-17T04:52:03.363Z,87.78
2018-09-17T04:53:13.460Z,88.17
2018-09-17T04:54:23.267Z,87.98
2018-09-17T04:55:33.352Z,87.59
2018-09-17T04:56:43.449Z,87.49
2018-09-17T04:57:53.508Z,87.49
2018-09-17T04:59:05.330Z,88.07
2018-09-17T05:00:15.418Z,87.44
2018-09-17T05:01:25.258Z,87.49
2018-09-17T05:02:35.074Z,88.02
2018-09-17T05:03:45.142Z,87.73
2018-09-17T05:04:54.947Z,87.54
2018-09-17T05:06:04.799Z,88.02
2018-09-17T05:07:14.975Z,87.92
2018-09-17T05:08:25.377Z,87.25
2018-09-17T05:09:35.544Z,87.44
2018-09-17T05:10:45.617Z,87.44
2018-09-17T05:11:55.716Z,87.73
2018-09-17T05:13:05.986Z,87.19
2018-09-17T05:14:16.630Z,87.39
2018-09-17T05:15:26.692Z,87.58
2018-09-17T05:16:36.770Z,87.01
2018-09-17T05:17:46.586Z,87.19
2018-09-17T05:18:56.651Z,87.58
2018-09-17T05:20:06.738Z,87.58
2018-09-17T05:21:16.808Z,87.1
2018-09-17T05:22:26.874Z,87.1
2018-09-17T05:23:36.697Z,86.95
2018-09-17T05:24:46.768Z,87.24
2018-09-17T05:25:56.855Z,86.85
2018-09-17T05:27:07.949Z,87.05
2018-09-17T05:28:18.032Z,87.15
2018-09-17T05:29:28.109Z,86.8
2018-09-17T05:30:38.188Z,87.09
2018-09-17T05:31:48.324Z,86.9
2018-09-17T05:32:58.423Z,86.9
2018-09-17T05:34:09.073Z,87.09
2018-09-17T05:35:19.168Z,87.09
2018-09-17T05:36:29.269Z,87.38
2018-09-17T05:37:39.212Z,86.71
2018-09-17T05:38:49.302Z,86.9
2018-09-17T05:39:59.138Z,87.67
2018-09-17T05:41:10.771Z,87.48
2018-09-17T05:42:20.584Z,87.29
2018-09-17T05:43:30.395Z,87.38
2018-09-17T05:44:40.472Z,87.29
2018-09-17T05:45:50.558Z,87.29
2018-09-17T05:47:00.624Z,87.29
2018-09-17T05:48:10.798Z,87.29
2018-09-17T05:49:20.880Z,87.29
2018-09-17T05:50:30.439Z,87.29
2018-09-17T05:51:40.521Z,87.29
2018-09-17T05:52:50.349Z,87.48
2018-09-17T05:54:00.551Z,87.29
2018-09-17T05:55:10.369Z,87.29
2018-09-17T05:56:20.296Z,87.29
2018-09-17T05:57:30.122Z,87.29
2018-09-17T05:58:40.204Z,87.52
2018-09-17T05:59:50.310Z,87.52
2018-09-17T06:01:00.385Z,87.33
2018-09-17T06:02:10.200Z,87.33
2018-09-17T06:03:20.280Z,87.42
2018-09-17T06:04:30.425Z,87.33
2018-09-17T06:05:40.721Z,87.52
2018-09-17T06:06:51.087Z,87.71
2018-09-17T06:08:03.059Z,87.52
2018-09-17T06:09:13.159Z,87.33
2018-09-17T06:10:22.982Z,87.13
2018-09-17T06:11:33.071Z,87.71
2018-09-17T06:12:42.987Z,87.13
2018-09-17T06:13:53.063Z,86.89
2018-09-17T06:15:03.720Z,87.18
2018-09-17T06:16:13.857Z,86.6
2018-09-17T06:17:24.035Z,86.79
2018-09-17T06:18:34.661Z,86.6
2018-09-17T06:19:44.734Z,86.65
2018-09-17T06:20:54.811Z,86.74
2018-09-17T06:22:04.915Z,86.35
2018-09-17T06:23:14.999Z,85.91
2018-09-17T06:24:25.342Z,85.91
2018-09-17T06:25:35.447Z,86.01
2018-09-17T06:26:45.697Z,86.01
2018-09-17T06:27:55.531Z,86.11
2018-09-17T06:29:05.842Z,86.01
2018-09-17T06:30:15.908Z,85.86
2018-09-17T06:31:25.460Z,86.05
2018-09-17T06:32:35.552Z,85.96
2018-09-17T06:33:45.645Z,86.25
2018-09-17T06:34:55.726Z,86.05
2018-09-17T06:36:08.065Z,85.96
2018-09-17T06:37:18.451Z,86.15
2018-09-17T06:38:28.290Z,86.05
2018-09-17T06:39:38.366Z,86.05
2018-09-17T06:40:48.439Z,86.73
2018-09-17T06:41:58.506Z,86.54
2018-09-17T06:43:09.626Z,86.54
2018-09-17T06:44:19.705Z,86.44
2018-09-17T06:45:29.771Z,86.54
2018-09-17T06:46:39.598Z,86.73
2018-09-17T06:47:49.681Z,87.02
2018-09-17T06:48:59.759Z,87.02
2018-09-17T06:50:09.834Z,86.73
2018-09-17T06:51:19.788Z,87.21
2018-09-17T06:52:30.076Z,87.3
2018-09-17T06:53:40.148Z,86.73
2018-09-17T06:54:50.409Z,86.92
2018-09-17T06:56:01.136Z,86.73
2018-09-17T06:57:11.204Z,87.4
2018-09-17T06:58:20.844Z,87.21
2018-09-17T06:59:30.652Z,87.4
2018-09-17T07:00:40.720Z,87.21
2018-09-17T07:01:50.836Z,87.21
2018-09-17T07:03:00.742Z,87.4
2018-09-17T07:04:10.814Z,87.3
2018-09-17T07:05:20.903Z,87.35
2018-09-17T07:06:30.958Z,86.92
2018-09-17T07:07:41.059Z,86.87
2018-09-17T07:08:51.188Z,86.58
2018-09-17T07:10:03.580Z,86.77
2018-09-17T07:11:13.384Z,86.58
2018-09-17T07:12:23.461Z,86.77
2018-09-17T07:13:33.273Z,86.58
2018-09-17T07:14:43.191Z,86.77
2018-09-17T07:15:53.264Z,86.87
2018-09-17T07:17:03.229Z,86.96
2018-09-17T07:18:13.460Z,87.06
2018-09-17T07:19:23.543Z,86.87
2018-09-17T07:20:33.620Z,86.87
2018-09-17T07:21:43.433Z,86.68
2018-09-17T07:22:53.535Z,86.68
2018-09-17T07:24:03.609Z,86.72
2018-09-17T07:25:13.788Z,86.72
2018-09-17T07:26:23.787Z,86.52
2018-09-17T07:27:33.864Z,86.18
2018-09-17T07:28:43.955Z,86.08
2018-09-17T07:29:54.020Z,86.28
2018-09-17T07:31:04.093Z,85.99
2018-09-17T07:32:14.175Z,86.18
2018-09-17T07:33:24.225Z,86.22
2018-09-17T07:34:34.306Z,86.13
2018-09-17T07:35:44.423Z,85.94
2018-09-17T07:36:54.507Z,86.13
2018-09-17T07:38:04.589Z,85.64
2018-09-17T07:39:14.696Z,86.27
2018-09-17T07:40:24.789Z,85.88
2018-09-17T07:41:34.613Z,86.07
2018-09-17T07:42:44.747Z,85.88
2018-09-17T07:43:54.985Z,85.88
2018-09-17T07:45:05.114Z,85.88
2018-09-17T07:46:15.179Z,85.78
2018-09-17T07:47:25.263Z,86.07
2018-09-17T07:48:35.350Z,85.98
2018-09-17T07:49:45.064Z,86.11
2018-09-17T07:50:54.868Z,86.07
2018-09-17T07:52:04.691Z,86.41
2018-09-17T07:53:14.882Z,86.11
2018-09-17T07:54:25.161Z,86.21
2018-09-17T07:55:34.967Z,86.21
2018-09-17T07:56:44.782Z,86.6
2018-09-17T07:57:54.882Z,86.51
2018-09-17T07:59:06.283Z,86.21
2018-09-17T08:00:16.363Z,86.51
2018-09-17T08:01:26.558Z,86.41
2018-09-17T08:02:36.646Z,86.41
2018-09-17T08:03:46.730Z,86.21
2018-09-17T08:04:56.548Z,86.31
2018-09-17T08:06:06.627Z,86.31
2018-09-17T08:07:16.457Z,86.21
2018-09-17T08:08:26.233Z,86.21
2018-09-17T08:09:36.341Z,86.21
2018-09-17T08:10:46.160Z,86.55
2018-09-17T08:11:56.236Z,86.45
2018-09-17T08:13:06.415Z,86.35
2018-09-17T08:14:16.499Z,86.35
2018-09-17T08:15:26.581Z,86.35
2018-09-17T08:16:36.391Z,86.45
2018-09-17T08:17:45.948Z,86.45
2018-09-17T08:18:56.087Z,86.45
2018-09-17T08:20:05.908Z,86.55
2018-09-17T08:21:15.739Z,86.65
2018-09-17T08:22:25.819Z,86.45
2018-09-17T08:23:35.684Z,86.45
2018-09-17T08:24:45.820Z,86.55
2018-09-17T08:25:55.921Z,86.3
2018-09-17T08:27:06.863Z,86.3
2018-09-17T08:28:16.710Z,86.3
2018-09-17T08:29:26.786Z,86.2
2018-09-17T08:30:36.937Z,86.1
2018-09-17T08:31:46.789Z,85.91
2018-09-17T08:32:56.613Z,86.01
2018-09-17T08:34:06.718Z,86.1
2018-09-17T08:35:16.256Z,86.3
2018-09-17T08:36:26.170Z,86.1
2018-09-17T08:37:36.252Z,86.01
2018-09-17T08:38:45.815Z,86.05
2018-09-17T08:39:55.612Z,86.05
2018-09-17T08:41:05.420Z,86.05
2018-09-17T08:42:14.705Z,86.15
2018-09-17T08:43:24.527Z,86.15
2018-09-17T08:44:34.602Z,86.34
2018-09-17T08:45:44.529Z,86.24
2018-09-17T08:46:54.732Z,86.15
2018-09-17T08:48:04.566Z,86.15
2018-09-17T08:49:14.640Z,86.15
2018-09-17T08:50:24.446Z,85.8
2018-09-17T08:51:34.517Z,86.19
2018-09-17T08:52:44.414Z,86.19
2018-09-17T08:53:54.437Z,86.19
2018-09-17T08:55:04.514Z,86.19
2018-09-17T08:56:14.146Z,86.19
2018-09-17T08:57:24.209Z,86.19
2018-09-17T08:58:34.370Z,86.19
2018-09-17T08:59:44.191Z,86.38
2018-09-17T09:00:54.291Z,86.43
2018-09-17T09:02:04.426Z,86.33
2018-09-17T09:03:14.502Z,86.09
2018-09-17T09:04:24.323Z,86.23
2018-09-17T09:05:34.149Z,86.23
2018-09-17T09:06:44.399Z,86.43
2018-09-17T09:07:54.475Z,86.23
2018-09-17T09:09:05.712Z,86.13
2018-09-17T09:10:15.836Z,86.04
2018-09-17T09:11:25.908Z,85.85
2018-09-17T09:12:35.831Z,85.79
2018-09-17T09:13:45.892Z,86.18
2018-09-17T09:14:55.743Z,85.89
2018-09-17T09:16:05.830Z,85.99
2018-09-17T09:17:15.910Z,85.89
2018-09-17T09:18:25.807Z,86.18
2018-09-17T09:19:36.035Z,85.89
2018-09-17T09:20:46.632Z,85.79
2018-09-17T09:21:56.701Z,85.79
2018-09-17T09:23:06.544Z,85.44
2018-09-17T09:24:16.629Z,85.93
2018-09-17T09:25:26.705Z,85.83
2018-09-17T09:26:36.803Z,85.93
2018-09-17T09:27:46.632Z,85.54
2018-09-17T09:28:56.720Z,86.22
2018-09-17T09:30:08.317Z,85.97
2018-09-17T09:31:18.400Z,85.93
2018-09-17T09:32:28.538Z,85.97
2018-09-17T09:33:38.614Z,85.97
2018-09-17T09:34:48.938Z,85.88
2018-09-17T09:35:58.779Z,85.78
2018-09-17T09:37:09.099Z,86.07
2018-09-17T09:38:19.259Z,85.97
2018-09-17T09:39:29.084Z,86.07
2018-09-17T09:40:39.204Z,85.97
2018-09-17T09:41:49.294Z,85.88
2018-09-17T09:42:59.387Z,85.88
2018-09-17T09:44:09.213Z,86.01
2018-09-17T09:45:19.274Z,85.97
2018-09-17T09:46:29.318Z,86.3
2018-09-17T09:47:39.448Z,86.01
2018-09-17T09:48:49.340Z,86.21
2018-09-17T09:49:59.225Z,86.11
2018-09-17T09:51:09.051Z,86.01
2018-09-17T09:52:19.143Z,86.3
2018-09-17T09:53:29.235Z,85.96
2018-09-17T09:54:38.808Z,85.57
2018-09-17T09:55:48.630Z,85.47
2018-09-17T09:56:58.691Z,85.47
2018-09-17T09:58:08.774Z,85.47
2018-09-17T09:59:18.858Z,86
2018-09-17T10:00:28.958Z,85.61
2018-09-17T10:01:39.112Z,85.61
2018-09-17T10:02:49.209Z,85.81
2018-09-17T10:03:59.281Z,85.81
2018-09-17T10:05:09.508Z,85.71
2018-09-17T10:06:19.335Z,85.71
2018-09-17T10:07:29.402Z,86
2018-09-17T10:08:39.468Z,85.81
2018-09-17T10:09:49.564Z,85.52
2018-09-17T10:10:59.638Z,85.81
2018-09-17T10:12:09.463Z,86.1
2018-09-17T10:13:19.557Z,86.19
2018-09-17T10:14:29.661Z,86.1
2018-09-17T10:15:39.748Z,86.35
2018-09-17T10:16:49.839Z,86.15
2018-09-17T10:18:00.039Z,85.96
2018-09-17T10:19:10.150Z,86
2018-09-17T10:20:20.393Z,86.1
2018-09-17T10:21:30.203Z,85.71
2018-09-17T10:22:40.334Z,85.81
2018-09-17T10:23:50.415Z,85.52
2018-09-17T10:25:01.084Z,85.42
2018-09-17T10:26:10.896Z,85.61
2018-09-17T10:27:21.003Z,85.94
2018-09-17T10:28:31.207Z,85.56
2018-09-17T10:29:40.758Z,85.46
2018-09-17T10:30:50.933Z,85.85
2018-09-17T10:32:00.763Z,85.56
2018-09-17T10:33:10.594Z,85.85
2018-09-17T10:34:20.736Z,85.66
2018-09-17T10:35:30.815Z,85.99
2018-09-17T10:36:40.898Z,85.79
2018-09-17T10:37:50.699Z,86.08
2018-09-17T10:39:00.780Z,86.18
2018-09-17T10:40:10.950Z,85.5
2018-09-17T10:41:21.486Z,85.79
2018-09-17T10:42:31.593Z,85.93
2018-09-17T10:43:41.399Z,85.74
2018-09-17T10:44:50.952Z,85.6
2018-09-17T10:46:00.761Z,86.08
2018-09-17T10:47:10.866Z,85.74
2018-09-17T10:48:20.762Z,85.64
2018-09-17T10:49:30.603Z,85.64
2018-09-17T10:50:40.468Z,85.69
2018-09-17T10:51:50.739Z,86.13
2018-09-17T10:53:00.821Z,85.93
2018-09-17T10:54:10.911Z,85.64
2018-09-17T10:55:21.036Z,85.74
2018-09-17T10:56:30.934Z,85.74
2018-09-17T10:57:40.814Z,85.74
2018-09-17T10:58:50.659Z,85.64
2018-09-17T11:00:00.476Z,86.13
2018-09-17T11:01:10.569Z,85.93
2018-09-17T11:02:20.664Z,85.83
2018-09-17T11:03:30.850Z,85.88
2018-09-17T11:04:40.923Z,85.83
2018-09-17T11:05:51.018Z,85.78
2018-09-17T11:07:01.101Z,85.78
2018-09-17T11:08:11.250Z,85.78
2018-09-17T11:09:21.546Z,85.49
2018-09-17T11:10:31.631Z,85.97
2018-09-17T11:11:41.464Z,85.88
2018-09-17T11:12:51.578Z,85.88
2018-09-17T11:14:01.685Z,85.39
2018-09-17T11:15:11.552Z,85.97
2018-09-17T11:16:21.391Z,86.17
2018-09-17T11:17:31.575Z,85.97
2018-09-17T11:18:41.787Z,85.49
2018-09-17T11:19:51.644Z,85.29
2018-09-17T11:21:01.823Z,85.33
2018-09-17T11:22:11.899Z,85.24
2018-09-17T11:23:21.760Z,85.63
2018-09-17T11:24:32.175Z,85.04
2018-09-17T11:25:42.259Z,85.14
2018-09-17T11:26:52.413Z,84.94
2018-09-17T11:28:02.523Z,85.04
2018-09-17T11:29:12.679Z,85.08
2018-09-17T11:30:22.779Z,85.08
2018-09-17T11:31:32.794Z,85.28
2018-09-17T11:32:42.988Z,85.38
2018-09-17T11:33:53.069Z,85.08
2018-09-17T11:35:04.042Z,85.28
2018-09-17T11:36:13.858Z,85.47
2018-09-17T11:37:23.779Z,85.28
2018-09-17T11:38:33.983Z,85.18
2018-09-17T11:39:43.797Z,84.79
2018-09-17T11:40:53.899Z,85.08
2018-09-17T11:42:03.725Z,85.08
2018-09-17T11:43:13.791Z,84.99
2018-09-17T11:44:24.001Z,85.08
2018-09-17T11:45:34.160Z,84.99
2018-09-17T11:46:44.304Z,85.52
2018-09-17T11:47:54.218Z,85.47
2018-09-17T11:49:05.801Z,85.08
2018-09-17T11:50:15.401Z,85.13
2018-09-17T11:51:25.486Z,85.42
2018-09-17T11:52:35.298Z,85.32
2018-09-17T11:53:45.125Z,85.42
2018-09-17T11:54:55.108Z,85.52
2018-09-17T11:56:05.256Z,85.13
2018-09-17T11:57:15.369Z,85.22
2018-09-17T11:58:25.190Z,85.13
2018-09-17T11:59:35.289Z,85.42
2018-09-17T12:00:45.417Z,85.13
2018-09-17T12:01:55.706Z,85.42
2018-09-17T12:03:06.913Z,85.22
2018-09-17T12:04:17.023Z,85.46
2018-09-17T12:05:27.128Z,85.36
2018-09-17T12:06:37.247Z,85.36
2018-09-17T12:07:47.420Z,85.56
2018-09-17T12:08:57.573Z,85.46
2018-09-17T12:10:07.397Z,85.75
2018-09-17T12:11:17.545Z,86.15
2018-09-17T12:12:27.770Z,85.36
2018-09-17T12:13:37.390Z,85.27
2018-09-17T12:14:47.469Z,85.17
2018-09-17T12:15:57.547Z,84.88
2018-09-17T12:17:07.625Z,85.17
2018-09-17T12:18:17.727Z,85.07
2018-09-17T12:19:27.924Z,85.17
2018-09-17T12:20:38.008Z,85.36
2018-09-17T12:21:47.851Z,85.36
2018-09-17T12:22:57.984Z,85.46
2018-09-17T12:24:09.088Z,85.56
2018-09-17T12:25:19.180Z,85.27
2018-09-17T12:26:29.256Z,85.46
2018-09-17T12:27:39.337Z,85.46
2018-09-17T12:28:49.434Z,85.7
2018-09-17T12:29:59.530Z,85.31
2018-09-17T12:31:10.723Z,85.31
2018-09-17T12:32:20.542Z,85.5
2018-09-17T12:33:30.455Z,85.31
2018-09-17T12:34:40.988Z,85.21
2018-09-17T12:35:50.820Z,85.31
2018-09-17T12:37:01.605Z,85.5
2018-09-17T12:38:11.160Z,85.56
2018-09-17T12:39:21.552Z,85.46
2018-09-17T12:40:31.398Z,85.6
2018-09-17T12:41:41.481Z,85.6
2018-09-17T12:42:51.580Z,85.7
2018-09-17T12:44:01.664Z,85.6
2018-09-17T12:45:11.784Z,85.6
2018-09-17T12:46:21.990Z,85.6
2018-09-17T12:47:32.090Z,85.6
2018-09-17T12:48:42.167Z,85.5
2018-09-17T12:49:52.252Z,85.6
2018-09-17T12:51:02.129Z,85.8
2018-09-17T12:52:11.975Z,85.6
2018-09-17T12:53:22.310Z,85.7
2018-09-17T12:54:32.414Z,85.6
2018-09-17T12:55:42.576Z,85.6
2018-09-17T12:56:52.409Z,85.99
2018-09-17T12:58:02.501Z,85.99
2018-09-17T12:59:12.672Z,85.99
2018-09-17T13:00:22.739Z,85.99
2018-09-17T13:01:32.290Z,86.38
2018-09-17T13:02:42.506Z,86.34
2018-09-17T13:03:52.590Z,86.15
2018-09-17T13:05:02.741Z,86.19
2018-09-17T13:06:12.594Z,86.05
2018-09-17T13:07:22.684Z,85.95
2018-09-17T13:08:32.775Z,85.95
2018-09-17T13:09:42.873Z,85.99
2018-09-17T13:10:52.885Z,86.38
2018-09-17T13:12:03.642Z,86.29
2018-09-17T13:13:13.769Z,86.19
2018-09-17T13:14:23.593Z,85.99
2018-09-17T13:15:33.463Z,86.29
2018-09-17T13:16:43.286Z,86.09
2018-09-17T13:17:53.102Z,85.99
2018-09-17T13:19:03.073Z,85.6
2018-09-17T13:20:12.879Z,85.7
2018-09-17T13:21:22.956Z,85.99
2018-09-17T13:22:33.057Z,86.38
2018-09-17T13:23:43.164Z,86.19
2018-09-17T13:24:53.299Z,85.89
2018-09-17T13:26:05.039Z,85.99
2018-09-17T13:27:15.126Z,85.8
2018-09-17T13:28:25.218Z,85.8
2018-09-17T13:29:35.109Z,85.99
2018-09-17T13:30:45.221Z,85.89
2018-09-17T13:31:55.585Z,85.89
2018-09-17T13:33:06.908Z,85.8
2018-09-17T13:34:17.104Z,85.84
2018-09-17T13:35:27.003Z,85.89
2018-09-17T13:36:37.089Z,85.8
2018-09-17T13:37:46.903Z,85.84
2018-09-17T13:38:56.748Z,85.94
2018-09-17T13:40:07.229Z,85.84
2018-09-17T13:41:17.055Z,85.64
2018-09-17T13:42:27.191Z,85.94
2018-09-17T13:43:37.434Z,86.13
2018-09-17T13:44:47.371Z,85.94
2018-09-17T13:45:57.282Z,86.04
2018-09-17T13:47:07.413Z,85.99
2018-09-17T13:48:17.273Z,85.94
2018-09-17T13:49:27.458Z,86.04
2018-09-17T13:50:37.665Z,86.43
2018-09-17T13:51:47.784Z,86.77
2018-09-17T13:52:58.001Z,86.09
2018-09-17T13:54:07.646Z,86.58
2018-09-17T13:55:17.817Z,86.19
2018-09-17T13:56:27.913Z,86.82
2018-09-17T13:57:37.765Z,86.91
2018-09-17T13:58:47.697Z,86.77
2018-09-17T13:59:57.849Z,86.68
2018-09-17T14:01:08.168Z,86.38
2018-09-17T14:02:18.289Z,86.48
2018-09-17T14:03:28.597Z,86.68
2018-09-17T14:04:38.850Z,86.38
2018-09-17T14:05:48.948Z,86.38
2018-09-17T14:06:59.071Z,86.48
2018-09-17T14:08:09.234Z,86.77
2018-09-17T14:09:19.381Z,86.38
2018-09-17T14:10:29.556Z,86.29
2018-09-17T14:11:39.721Z,86.29
2018-09-17T14:12:49.894Z,86.48
2018-09-17T14:13:59.728Z,86.87
2018-09-17T14:15:09.560Z,86.48
2018-09-17T14:16:19.708Z,86.68
2018-09-17T14:17:29.858Z,86.29
2018-09-17T14:18:39.703Z,86.38
2018-09-17T14:19:49.813Z,86.38
2018-09-17T14:20:59.922Z,86.68
2018-09-17T14:22:09.823Z,86.38
2018-09-17T14:23:19.450Z,86.58
2018-09-17T14:24:29.588Z,86.58
2018-09-17T14:25:39.465Z,86.97
2018-09-17T14:26:49.292Z,86.68
2018-09-17T14:27:59.483Z,87.07
2018-09-17T14:29:09.726Z,86.77
2018-09-17T14:30:19.599Z,86.77
2018-09-17T14:31:29.427Z,87.07
2018-09-17T14:32:39.625Z,87.16
2018-09-17T14:33:50.010Z,87.22
2018-09-17T14:34:59.581Z,86.93
2018-09-17T14:36:09.711Z,87.02
2018-09-17T14:37:19.811Z,87.02
2018-09-17T14:38:29.693Z,87.02
2018-09-17T14:39:39.857Z,87.12
2018-09-17T14:40:50.086Z,87.32
2018-09-17T14:42:00.511Z,87.32
2018-09-17T14:43:10.031Z,87.22
2018-09-17T14:44:19.865Z,87.02
2018-09-17T14:45:29.536Z,87.12
2018-09-17T14:46:39.376Z,87.12
2018-09-17T14:47:49.543Z,87.41
2018-09-17T14:48:59.693Z,87.02
2018-09-17T14:50:11.122Z,87.12
2018-09-17T14:51:21.525Z,86.98
2018-09-17T14:52:31.895Z,86.88
2018-09-17T14:53:41.749Z,86.79
2018-09-17T14:54:51.632Z,86.98
2018-09-17T14:56:01.746Z,87.08
2018-09-17T14:57:11.905Z,87.33
2018-09-17T14:58:22.056Z,87.37
2018-09-17T14:59:31.970Z,87.13
2018-09-17T15:00:42.128Z,87.71
2018-09-17T15:01:52.304Z,87.42
2018-09-17T15:03:02.459Z,87.62
2018-09-17T15:04:12.521Z,87.52
2018-09-17T15:05:23.382Z,87.52
2018-09-17T15:06:33.692Z,87.13
2018-09-17T15:07:43.923Z,87.13
2018-09-17T15:08:54.693Z,87.33
2018-09-17T15:10:05.810Z,87.81
2018-09-17T15:11:16.202Z,87.13
2018-09-17T15:12:26.301Z,87.71
2018-09-17T15:13:36.322Z,87.81
2018-09-17T15:14:46.617Z,87.77
2018-09-17T15:15:56.783Z,87.87
2018-09-17T15:17:06.856Z,87.48
2018-09-17T15:18:16.999Z,87.67
2018-09-17T15:19:27.174Z,87.57
2018-09-17T15:20:37.353Z,87.77
2018-09-17T15:21:47.444Z,87.77
2018-09-17T15:22:57.291Z,87.77
2018-09-17T15:24:07.349Z,88.16
2018-09-17T15:25:17.567Z,87.77
2018-09-17T15:26:27.697Z,87.77
2018-09-17T15:27:38.187Z,87.87
2018-09-17T15:28:48.328Z,87.87
2018-09-17T15:29:58.207Z,88.16
2018-09-17T15:31:08.531Z,87.67
2018-09-17T15:32:19.588Z,87.87
2018-09-17T15:33:30.403Z,87.53
2018-09-17T15:34:39.982Z,88.31
2018-09-17T15:35:50.085Z,88.12
2018-09-17T15:37:00.364Z,88.26